Time;durP1;ratioP1;P1;durP2;ratioP2;P2;SDS_P1;SDS_P2;PMS_P1;PMS_P2;Temp;Humidity;BMP_temperature;BMP_pressure;BME280_temperature;BME280_humidity;BME280_pressure;Samples;Min_cycle;Max_cycle;Signal;HPM_P1;HPM_P2
2022/08/28 00:02:57;;;;;;;17.60;12.40;;;;;;;23.18;72.05;100180.92;5068058;57;1143148;-67
2022/08/28 00:08:02;;;;;;;19.40;12.80;;;;;;;22.78;71.39;100188.17;5102569;57;1143214;-70
2022/08/28 00:13:17;;;;;;;21.40;13.90;;;;;;;22.40;71.76;100200.84;5110814;57;1143189;-69
2022/08/28 00:18:19;;;;;;;;;;;;;;;22.28;73.12;100205.69;5131884;57;1143103;-67
2022/08/28 00:23:26;;;;;;;21.35;12.58;;;;;;;22.34;73.69;100203.51;5151529;57;976238;-69
2022/08/28 00:28:33;;;;;;;19.95;12.33;;;;;;;22.15;73.62;100202.44;5148606;57;1141110;-72
2022/08/28 00:33:41;;;;;;;21.57;13.72;;;;;;;21.89;74.33;100210.34;5148917;57;1141055;-68
2022/08/28 00:38:47;;;;;;;17.98;13.20;;;;;;;21.71;75.58;100194.20;5148755;57;1141300;-71
2022/08/28 00:44:08;;;;;;;23.32;12.95;;;;;;;21.83;76.52;100203.09;5148574;57;1141003;-67
2022/08/28 00:49:17;;;;;;;16.23;11.55;;;;;;;21.68;76.25;100209.95;5058946;57;1141023;-69
2022/08/28 00:54:24;;;;;;;23.08;12.94;;;;;;;21.57;77.22;100206.44;5148750;56;1141057;-70
2022/08/28 00:59:30;;;;;;;30.12;14.35;;;;;;;21.49;77.48;100202.58;5149155;56;1141089;-68
2022/08/28 01:04:37;;;;;;;19.60;14.35;;;;;;;21.39;78.25;100201.56;5065918;58;1141154;-69
2022/08/28 01:09:48;;;;;;;26.07;13.00;;;;;;;21.33;79.17;100209.92;5053780;58;1141294;-68
2022/08/28 01:14:58;;;;;;;19.05;13.72;;;;;;;21.20;79.59;100211.69;5059009;58;1141173;-68
2022/08/28 01:20:09;;;;;;;20.90;13.58;;;;;;;21.23;80.11;100205.41;5065355;58;1141288;-72
2022/08/28 01:25:18;;;;;;;21.82;13.20;;;;;;;21.51;80.84;100189.25;5065481;58;1141154;-70
2022/08/28 01:30:25;;;;;;;20.80;14.20;;;;;;;21.64;80.39;100181.76;5065635;57;1139154;-67
2022/08/28 01:35:34;;;;;;;17.35;13.25;;;;;;;21.78;80.58;100181.30;5024476;58;1143014;-65
2022/08/28 01:40:45;;;;;;;18.27;13.05;;;;;;;21.81;80.11;100182.26;5065799;58;1143052;-70
2022/08/28 01:45:56;;;;;;;22.50;14.35;;;;;;;21.64;79.81;100187.97;4989087;58;1143233;-67
2022/08/28 01:51:03;;;;;;;15.23;13.43;;;;;;;21.61;80.05;100186.19;4984832;59;1143137;-70
2022/08/28 01:56:14;;;;;;;33.34;13.00;;;;;;;21.45;80.04;100191.88;5048492;58;1143389;-67
2022/08/28 02:01:22;;;;;;;21.52;13.32;;;;;;;21.21;80.67;100195.36;5049348;58;1143195;-72
2022/08/28 02:06:28;;;;;;;22.73;13.30;;;;;;;21.27;81.98;100189.17;5067804;58;1143158;-69
2022/08/28 02:11:34;;;;;;;22.82;12.45;;;;;;;21.49;82.26;100184.57;5144320;57;1142988;-68
2022/08/28 02:16:39;;;;;;;15.65;12.40;;;;;;;21.41;81.02;100180.67;5159207;57;1143057;-70
2022/08/28 02:21:45;;;;;;;17.10;14.40;;;;;;;21.31;81.51;100189.63;5158008;57;1143158;-67
2022/08/28 02:26:51;;;;;;;18.67;12.30;;;;;;;21.41;83.08;100203.55;5157930;57;1143175;-69
2022/08/28 02:31:56;;;;;;;19.35;12.78;;;;;;;21.33;82.11;100178.16;5157907;57;1143383;-69
2022/08/28 02:37:02;;;;;;;13.30;10.78;;;;;;;21.11;83.09;100194.81;5157928;57;1143515;-70
2022/08/28 02:42:08;;;;;;;17.55;11.40;;;;;;;20.99;83.98;100188.31;5153703;57;1143118;-70
2022/08/28 02:47:14;;;;;;;17.20;10.63;;;;;;;20.82;84.48;100189.61;5137744;57;1143211;-68
2022/08/28 02:52:21;;;;;;;14.65;11.48;;;;;;;20.95;84.56;100189.20;5153348;57;1143465;-66
2022/08/28 02:57:27;;;;;;;20.50;11.30;;;;;;;20.80;84.09;100180.39;5157582;57;1143111;-67
2022/08/28 03:02:33;;;;;;;20.92;11.55;;;;;;;20.77;84.75;100186.17;5145812;57;1143369;-65
2022/08/28 03:07:39;;;;;;;14.07;11.33;;;;;;;20.63;84.84;100191.08;5137747;57;1143309;-69
2022/08/28 03:12:45;;;;;;;14.73;11.43;;;;;;;20.51;85.39;100180.02;5155237;56;1143160;-68
2022/08/28 03:17:52;;;;;;;20.25;10.28;;;;;;;20.27;85.42;100185.73;5162282;56;1143299;-71
2022/08/28 03:28:19;;;;;;;17.73;9.98;;;;;;;19.82;86.82;100188.19;4900737;60;1143321;-66
2022/08/28 03:33:26;;;;;;;21.14;9.64;;;;;;;19.83;87.71;100189.34;4900893;60;1141285;-68
2022/08/28 03:38:33;;;;;;;11.45;9.45;;;;;;;20.01;87.85;100192.44;4900631;60;1141341;-71
2022/08/28 03:43:39;;;;;;;16.25;11.12;;;;;;;20.16;88.27;100188.92;4946356;59;1141164;-65
2022/08/28 03:48:46;;;;;;;18.02;9.73;;;;;;;20.12;88.25;100190.31;4918301;59;1143256;-68
2022/08/28 03:53:52;;;;;;;14.15;9.08;;;;;;;20.11;88.35;100192.16;4900606;60;1141098;-67
2022/08/28 03:59:03;;;;;;;19.10;10.05;;;;;;;20.12;88.41;100193.00;4928970;59;1141181;-67
2022/08/28 04:04:08;;;;;;;19.17;10.30;;;;;;;20.11;88.77;100196.70;5080706;56;1143171;-68
2022/08/28 04:09:15;;;;;;;16.10;9.93;;;;;;;20.12;89.38;100200.54;5079131;58;1143374;-69
2022/08/28 04:14:21;;;;;;;17.23;10.45;;;;;;;20.05;89.57;100209.02;5233571;56;1139014;-69
2022/08/28 04:19:28;;;;;;;20.46;11.12;;;;;;;19.96;89.68;100212.33;5234628;56;1141133;-69
2022/08/28 04:24:34;;;;;;;13.05;11.18;;;;;;;19.94;90.32;100217.05;5234915;56;1141312;-68
2022/08/28 04:29:41;;;;;;;15.08;10.48;;;;;;;19.97;90.47;100216.67;5234922;56;1141105;-71
2022/08/28 04:34:47;;;;;;;13.22;11.92;;;;;;;19.96;90.79;100215.52;5190973;56;1141090;-68
2022/08/28 04:39:53;;;;;;;18.40;9.45;;;;;;;19.91;91.43;100224.13;5235637;56;1141124;-68
2022/08/28 04:44:59;;;;;;;17.72;14.06;;;;;;;19.88;93.82;100232.54;5125607;57;1138998;-67
2022/08/28 04:50:07;;;;;;;24.47;17.98;;;;;;;19.79;94.43;100227.47;5064200;58;1141096;-66
2022/08/28 04:55:14;;;;;;;19.73;15.98;;;;;;;19.53;100.00;100229.27;5022767;58;1140643;-69
2022/08/28 05:00:20;;;;;;;23.22;18.37;;;;;;;19.38;100.00;100226.55;5148368;57;1143360;-68
2022/08/28 05:05:27;;;;;;;25.43;19.57;;;;;;;19.35;100.00;100225.56;5161205;57;1143153;-68
2022/08/28 05:10:34;;;;;;;33.65;19.15;;;;;;;19.36;100.00;100218.35;5148940;56;1143390;-71
2022/08/28 05:15:43;;;;;;;25.12;18.23;;;;;;;19.37;100.00;100228.06;5133575;56;1143202;-68
2022/08/28 05:20:49;;;;;;;30.32;18.98;;;;;;;19.50;100.00;100235.00;5045269;57;1143309;-67
2022/08/28 05:25:57;;;;;;;21.77;16.15;;;;;;;19.58;100.00;100222.32;5037751;58;1143178;-67
2022/08/28 05:31:18;;;;;;;30.27;19.73;;;;;;;19.49;100.00;100222.09;5036760;58;1143143;-69
2022/08/28 05:36:25;;;;;;;25.63;19.63;;;;;;;19.44;100.00;100230.32;5037107;58;1145110;-68
2022/08/28 05:41:32;;;;;;;21.48;17.40;;;;;;;19.47;100.00;100229.45;5107087;57;1144862;-65
2022/08/28 05:46:42;;;;;;;29.27;19.33;;;;;;;19.54;100.00;100222.38;5084796;57;1145200;-69
2022/08/28 05:51:48;;;;;;;28.62;17.07;;;;;;;19.56;100.00;100239.10;5141484;57;1145217;-68
2022/08/28 05:56:54;;;;;;;27.77;19.67;;;;;;;19.52;100.00;100235.66;5162337;57;1145297;-68
2022/08/28 06:02:00;;;;;;;44.05;22.55;;;;;;;19.52;100.00;100242.36;5148752;57;1144598;-69
2022/08/28 06:07:08;;;;;;;33.63;20.27;;;;;;;19.55;100.00;100237.97;5149865;57;1145153;-66
2022/08/28 06:12:14;;;;;;;31.35;22.10;;;;;;;19.71;100.00;100234.28;5141368;57;1145333;-70
2022/08/28 06:17:21;;;;;;;31.37;22.82;;;;;;;19.82;100.00;100240.01;5065155;57;1145510;-67
2022/08/28 06:22:27;;;;;;;24.10;19.65;;;;;;;19.81;100.00;100235.66;5063500;57;1145396;-70
2022/08/28 06:27:35;;;;;;;34.98;21.40;;;;;;;19.94;100.00;100235.00;5081603;57;1145228;-68
2022/08/28 06:32:40;;;;;;;29.02;19.00;;;;;;;20.01;100.00;100235.39;5075207;57;1145360;-68
2022/08/28 06:37:46;;;;;;;32.08;19.15;;;;;;;19.90;100.00;100243.92;5064899;57;1145221;-67
2022/08/28 06:42:53;;;;;;;29.76;20.62;;;;;;;19.83;100.00;100247.55;5070760;57;1145281;-72
2022/08/28 06:47:59;;;;;;;33.28;23.73;;;;;;;19.93;100.00;100247.59;5014604;57;1145203;-68
2022/08/28 06:53:04;;;;;;;32.35;22.10;;;;;;;20.01;100.00;100248.81;5088485;57;1145289;-71
2022/08/28 06:58:11;;;;;;;30.95;21.40;;;;;;;20.11;100.00;100251.74;5148938;57;1145200;-69
2022/08/28 07:03:17;;;;;;;32.65;21.57;;;;;;;20.10;100.00;100259.47;5057849;57;1145756;-68
2022/08/28 07:08:25;;;;;;;36.33;20.75;;;;;;;20.21;100.00;100258.98;5107200;57;1145349;-71
2022/08/28 07:13:31;;;;;;;28.98;21.57;;;;;;;20.32;100.00;100264.70;5149519;56;1145288;-71
2022/08/28 07:18:38;;;;;;;28.32;19.50;;;;;;;20.32;100.00;100267.38;5221939;56;1145517;-69
2022/08/28 07:23:45;;;;;;;30.52;19.85;;;;;;;20.29;100.00;100270.47;5223481;56;1145281;-69
2022/08/28 07:28:53;;;;;;;26.48;19.00;;;;;;;20.31;100.00;100267.09;5188776;56;1145229;-67
2022/08/28 07:33:59;;;;;;;29.65;20.20;;;;;;;20.41;100.00;100268.16;5208065;56;1145262;-68
2022/08/28 07:39:06;;;;;;;22.35;17.73;;;;;;;20.45;100.00;100271.30;5178729;56;1145193;-71
2022/08/28 07:49:40;;;;;;;22.60;18.05;;;;;;;20.60;100.00;100267.56;5137604;57;1145452;-65
2022/08/28 07:54:46;;;;;;;20.55;17.67;;;;;;;20.79;100.00;100272.80;5137643;57;1145258;-67
2022/08/28 07:59:52;;;;;;;34.03;18.45;;;;;;;20.97;100.00;100273.20;5202200;56;1145225;-68
2022/08/28 08:04:58;;;;;;;23.57;18.05;;;;;;;21.18;100.00;100277.75;5158310;56;1145338;-69
2022/08/28 08:10:04;;;;;;;24.87;17.27;;;;;;;21.55;100.00;100269.88;5138250;56;1145190;-71
2022/08/28 08:15:12;;;;;;;17.85;14.68;;;;;;;21.80;100.00;100265.40;5212740;56;1143157;-68
2022/08/28 08:20:17;;;;;;;22.67;15.88;;;;;;;22.06;100.00;100265.05;5093376;57;1143176;-67
2022/08/28 08:25:23;;;;;;;19.45;14.33;;;;;;;22.36;100.00;100279.07;5036177;58;1143359;-68
2022/08/28 08:30:28;;;;;;;20.62;13.38;;;;;;;22.62;100.00;100274.28;5148922;57;1143108;-68
2022/08/28 08:35:35;;;;;;;17.77;12.82;;;;;;;22.69;100.00;100280.53;5206230;56;1143193;-71
2022/08/28 08:40:41;;;;;;;16.80;13.58;;;;;;;22.97;100.00;100279.06;5223500;56;1143190;-68
2022/08/28 08:45:51;;;;;;;21.35;12.93;;;;;;;23.22;100.00;100286.58;5084009;56;1143362;-70
2022/08/28 08:51:04;;;;;;;15.83;13.78;;;;;;;23.33;100.00;100284.08;5073890;58;1143078;-66
2022/08/28 08:56:14;;;;;;;14.20;10.65;;;;;;;23.41;100.00;100283.03;5073842;58;1143174;-68
2022/08/28 09:01:43;;;;;;;15.63;10.88;;;;;;;23.39;99.51;100285.09;5103518;57;1143086;-68
2022/08/28 09:06:56;;;;;;;16.70;12.98;;;;;;;23.23;98.65;100294.95;5144448;57;1141306;-71
2022/08/28 09:12:06;;;;;;;15.55;11.85;;;;;;;23.19;99.26;100295.91;5073335;57;1143132;-68
2022/08/28 09:17:16;;;;;;;17.13;13.07;;;;;;;23.25;99.48;100296.41;5095611;57;1143306;-73
2022/08/28 09:22:22;;;;;;;23.97;11.73;;;;;;;23.33;99.34;100302.97;5126299;57;1143342;-68
2022/08/28 09:27:32;;;;;;;18.07;13.00;;;;;;;23.44;99.44;100307.73;5125945;57;1143198;-72
2022/08/28 09:32:43;;;;;;;12.37;10.50;;;;;;;23.47;99.39;100304.63;5125977;57;1143351;-70
2022/08/28 09:37:49;;;;;;;19.15;11.85;;;;;;;23.62;99.51;100310.36;5125887;57;1143112;-70
2022/08/28 09:48:42;;;;;;;22.32;12.13;;;;;;;23.89;99.12;100307.94;5148964;56;1143165;-67
2022/08/28 09:53:58;;;;;;;16.15;10.70;;;;;;;24.03;98.80;100311.44;5195991;56;1143203;-65
2022/08/28 09:59:15;;;;;;;18.45;10.78;;;;;;;24.25;99.04;100313.39;5189253;56;1143147;-65
2022/08/28 10:04:45;;;;;;;18.60;11.43;;;;;;;24.43;96.85;100308.96;5212521;56;1143143;-67
2022/08/28 10:10:01;;;;;;;18.05;9.93;;;;;;;24.47;96.17;100316.09;5199692;56;1143135;-70
2022/08/28 10:15:56;;;;;;;14.18;10.88;;;;;;;24.52;94.57;100312.23;5196440;56;1141058;-69
2022/08/28 10:21:25;;;;;;;13.65;11.10;;;;;;;24.46;94.43;100313.09;5213565;56;1141034;-68
2022/08/28 10:27:05;;;;;;;17.40;10.60;;;;;;;24.46;94.90;100308.51;5213826;56;1141323;-69
2022/08/28 10:32:32;;;;;;;11.43;9.60;;;;;;;24.52;94.91;100307.66;5213599;56;1139036;-72
2022/08/28 10:37:58;;;;;;;20.77;11.97;;;;;;;24.60;94.34;100294.92;5213514;56;1141100;-67
2022/08/28 10:43:24;;;;;;;11.70;9.48;;;;;;;24.68;94.77;100307.69;5172987;56;1143189;-68
2022/08/28 10:48:37;;;;;;;9.60;8.65;;;;;;;24.73;94.25;100298.94;5213447;56;1140987;-69
2022/08/28 10:53:50;;;;;;;19.42;12.18;;;;;;;24.75;93.38;100315.23;5213053;56;1138932;-67
2022/08/28 10:58:59;;;;;;;13.22;10.60;;;;;;;24.72;92.15;100308.09;5213440;56;1143149;-71
2022/08/28 11:04:10;;;;;;;14.05;10.68;;;;;;;24.81;91.82;100314.90;5136212;56;1143140;-70
2022/08/28 11:09:29;;;;;;;15.40;11.35;;;;;;;24.81;91.73;100314.90;5167758;57;1143210;-68
2022/08/28 11:14:41;;;;;;;18.67;11.20;;;;;;;24.82;90.73;100325.51;5194028;56;1143526;-71
2022/08/28 11:20:08;;;;;;;21.87;11.70;;;;;;;24.85;91.02;100331.84;5137024;57;1143178;-67
2022/08/28 11:25:33;;;;;;;15.72;11.08;;;;;;;24.85;91.42;100335.07;5137692;57;1143163;-70
2022/08/28 11:30:39;;;;;;;14.13;9.58;;;;;;;24.81;90.82;100340.08;5137815;57;1143545;-71
2022/08/28 11:35:49;;;;;;;12.30;9.50;;;;;;;24.81;91.41;100341.95;5137684;57;1141368;-72
2022/08/28 11:40:57;;;;;;;24.10;11.33;;;;;;;24.82;91.00;100346.31;5137719;57;1139020;-69
2022/08/28 11:46:13;;;;;;;82.55;62.88;;;;;;;24.83;91.33;100350.16;5136945;57;1141119;-70
2022/08/28 11:51:29;;;;;;;76.90;62.17;;;;;;;24.88;91.19;100356.28;5136999;57;1141183;-71
2022/08/28 11:57:14;;;;;;;25.15;20.82;;;;;;;24.92;91.29;100358.02;5136072;57;1141110;-69
2022/08/28 12:02:47;;;;;;;561.40;327.27;;;;;;;24.91;90.27;100361.24;5137773;57;1141105;-72
2022/08/28 12:07:52;;;;;;;710.02;482.92;;;;;;;24.85;89.85;100356.71;5164679;56;1147244;-70
2022/08/28 12:13:01;;;;;;;40.73;26.62;;;;;;;24.86;90.16;100360.55;5223551;56;1147312;-71
2022/08/28 12:18:14;;;;;;;20.65;15.28;;;;;;;24.86;90.29;100360.55;5115025;57;1143214;-67
2022/08/28 12:23:43;;;;;;;27.75;21.82;;;;;;;24.97;90.54;100356.88;5048183;57;1143392;-68
2022/08/28 12:28:56;;;;;;;23.67;19.90;;;;;;;24.98;90.00;100358.02;5117144;57;1143104;-70
2022/08/28 12:34:05;;;;;;;64.55;46.08;;;;;;;25.03;89.94;100362.27;5123896;57;1143172;-71
2022/08/28 12:39:17;;;;;;;60.88;47.27;;;;;;;25.09;89.72;100361.38;5105087;57;1143183;-69
2022/08/28 12:44:27;;;;;;;26.77;20.10;;;;;;;25.17;90.26;100362.50;5126615;57;1143154;-69
2022/08/28 12:49:36;;;;;;;15.63;13.20;;;;;;;25.29;89.22;100355.02;5126804;57;1143322;-67
2022/08/28 12:54:46;;;;;;;12.82;9.28;;;;;;;25.29;88.94;100359.08;5126283;57;1143132;-73
2022/08/28 12:59:54;;;;;;;13.95;10.90;;;;;;;25.34;89.63;100358.73;5126914;57;1141278;-68
2022/08/28 13:05:05;;;;;;;16.07;9.73;;;;;;;25.26;89.29;100358.16;5130674;56;1143111;-72
2022/08/28 13:10:30;;;;;;;10.17;8.40;;;;;;;25.22;89.66;100356.41;5079699;57;1141157;-71
2022/08/28 13:16:01;;;;;;;21.57;11.12;;;;;;;25.24;89.30;100351.61;5066512;57;1141089;-67
2022/08/28 13:21:27;;;;;;;22.48;12.80;;;;;;;25.28;89.36;100347.95;5042962;58;1143179;-71
2022/08/28 13:26:36;;;;;;;13.28;8.80;;;;;;;25.34;89.59;100352.49;5043250;58;1141026;-69
2022/08/28 13:31:43;;;;;;;25.85;15.10;;;;;;;25.31;88.80;100355.63;5043243;58;1138948;-74
2022/08/28 13:36:56;;;;;;;16.37;9.23;;;;;;;25.24;88.54;100353.79;5126014;57;1141142;-71
2022/08/28 13:42:15;;;;;;;47.73;24.65;;;;;;;25.23;88.75;100354.84;5058351;57;1139038;-70
2022/08/28 13:47:22;;;;;;;39.30;17.35;;;;;;;25.24;88.82;100354.31;5042587;58;1141359;-67
2022/08/28 13:52:28;;;;;;;22.90;10.32;;;;;;;25.27;88.00;100359.82;5167639;57;1141083;-70
2022/08/28 13:57:34;;;;;;;58.75;23.47;;;;;;;25.14;88.59;100356.16;5180725;57;1141050;-74
2022/08/28 14:08:05;;;;;;;13.78;7.97;;;;;;;25.04;88.37;100360.39;5167327;56;1143248;-66
2022/08/28 14:13:11;;;;;;;13.70;8.80;;;;;;;24.98;88.65;100368.02;5227802;56;1141052;-72
2022/08/28 14:18:16;;;;;;;17.87;9.13;;;;;;;24.93;88.61;100367.79;5151732;56;1141208;-71
2022/08/28 14:23:23;;;;;;;16.20;8.33;;;;;;;24.81;88.76;100368.48;5125951;57;1141041;-71
2022/08/28 14:28:28;;;;;;;5.90;5.35;;;;;;;24.73;89.41;100364.69;5125734;57;1141015;-65
2022/08/28 14:33:34;;;;;;;8.93;7.78;;;;;;;24.70;89.96;100366.45;5125587;57;1139171;-67
2022/08/28 14:38:40;;;;;;;6.42;5.78;;;;;;;24.75;89.94;100367.97;5125881;57;1138977;-68
2022/08/28 14:43:48;;;;;;;6.50;5.15;;;;;;;24.73;89.27;100371.97;5154755;57;1139164;-66
2022/08/28 14:49:04;;;;;;;8.85;5.28;;;;;;;24.63;90.03;100378.33;5180338;57;1138934;-70
2022/08/28 14:54:14;;;;;;;9.80;5.53;;;;;;;24.52;90.07;100376.61;5179759;57;1138957;-71
2022/08/28 14:59:24;;;;;;;8.15;4.60;;;;;;;24.37;90.80;100381.97;5180544;57;1138970;-67
2022/08/28 15:04:34;;;;;;;9.15;4.50;;;;;;;24.24;91.27;100377.95;5126891;57;1138936;-71
2022/08/28 15:09:42;;;;;;;8.73;4.83;;;;;;;24.15;91.76;100382.70;5100996;57;1139327;-68
2022/08/28 15:14:48;;;;;;;7.35;4.55;;;;;;;24.07;92.26;100378.88;5042773;57;1138922;-72
2022/08/28 15:19:53;;;;;;;10.85;4.92;;;;;;;23.93;92.71;100381.28;5135497;56;1138997;-69
2022/08/28 15:24:59;;;;;;;7.90;4.95;;;;;;;23.86;92.37;100381.28;5162301;56;1141412;-73
2022/08/28 15:30:06;;;;;;;4.37;3.98;;;;;;;23.78;92.70;100384.20;5162243;57;1138982;-71
2022/08/28 15:35:12;;;;;;;5.92;4.10;;;;;;;23.74;92.81;100391.89;5162300;57;1139052;-71
2022/08/28 15:45:42;;;;;;;4.03;3.67;;;;;;;23.57;92.92;100393.84;5162414;56;1138948;-69
2022/08/28 15:50:47;;;;;;;8.73;4.00;;;;;;;23.45;93.67;100402.53;5162508;56;1139213;-70
2022/08/28 15:55:53;;;;;;;9.45;3.33;;;;;;;23.33;94.17;100408.23;5162292;56;1139179;-69
2022/08/28 16:01:00;;;;;;;7.65;3.42;;;;;;;23.28;94.16;100412.56;5162322;56;1138956;-70
2022/08/28 16:06:13;;;;;;;14.28;4.95;;;;;;;23.33;94.30;100420.37;5161435;57;1139187;-74
2022/08/28 16:11:21;;;;;;;4.25;3.62;;;;;;;23.29;94.23;100425.02;5078349;57;1141359;-70
2022/08/28 16:16:27;;;;;;;4.90;4.00;;;;;;;23.24;93.96;100427.48;5109532;57;1138982;-66
2022/08/28 16:21:33;;;;;;;6.92;3.65;;;;;;;23.15;94.32;100430.39;5105189;57;1138871;-72
2022/08/28 16:26:39;;;;;;;7.22;3.75;;;;;;;23.07;94.97;100428.37;5091417;57;1138969;-66
2022/08/28 16:31:45;;;;;;;5.42;3.58;;;;;;;22.98;94.48;100433.64;5074458;57;1138950;-72
2022/08/28 16:36:52;;;;;;;5.42;3.92;;;;;;;22.95;94.59;100439.43;5077922;57;1136841;-68
2022/08/28 16:41:58;;;;;;;7.45;4.10;;;;;;;22.89;94.53;100441.60;5059459;57;1136972;-71
2022/08/28 16:47:04;;;;;;;7.90;3.65;;;;;;;22.79;96.09;100443.30;5082652;57;1136897;-71
2022/08/28 16:52:09;;;;;;;8.18;4.40;;;;;;;22.71;96.38;100441.59;5094968;57;1136889;-71
2022/08/28 16:57:16;;;;;;;8.75;3.75;;;;;;;22.57;96.42;100437.16;5083406;57;1137139;-67
2022/08/28 17:02:23;;;;;;;6.25;4.22;;;;;;;22.46;97.05;100437.69;5072729;57;1136882;-70
2022/08/28 17:07:29;;;;;;;4.33;3.95;;;;;;;22.37;97.02;100439.73;5112557;57;1136948;-71
2022/08/28 17:12:35;;;;;;;7.72;3.70;;;;;;;22.24;98.10;100445.55;5053869;56;1136867;-71
2022/08/28 17:17:42;;;;;;;4.00;3.45;;;;;;;22.13;97.49;100456.87;5095483;57;1136975;-71
2022/08/28 17:22:48;;;;;;;4.33;3.92;;;;;;;22.09;97.97;100463.98;5179542;56;1136937;-71
2022/08/28 17:27:54;;;;;;;4.45;3.50;;;;;;;22.09;97.77;100468.02;5228519;56;1137077;-69
2022/08/28 17:33:00;;;;;;;4.47;4.08;;;;;;;22.05;97.79;100466.74;5200035;56;1136938;-71
2022/08/28 17:38:06;;;;;;;4.67;3.52;;;;;;;21.98;97.83;100462.31;5142447;57;1136405;-66
2022/08/28 17:43:12;;;;;;;3.40;3.10;;;;;;;21.93;98.14;100460.70;5178229;56;1136881;-70
2022/08/28 17:48:18;;;;;;;3.22;2.55;;;;;;;21.86;98.47;100461.14;5210753;56;1136911;-68
2022/08/28 17:53:24;;;;;;;3.40;3.10;;;;;;;21.84;97.98;100473.48;5224963;56;1136917;-69
2022/08/28 17:58:30;;;;;;;2.65;2.45;;;;;;;21.82;97.75;100486.81;5182303;56;1136926;-70
2022/08/28 18:03:36;;;;;;;4.65;2.42;;;;;;;21.75;97.61;100491.61;5211072;56;1136782;-69
2022/08/28 18:08:43;;;;;;;2.95;2.52;;;;;;;21.66;98.19;100499.50;5186509;56;1134825;-67
2022/08/28 18:13:49;;;;;;;2.25;2.08;;;;;;;21.61;98.08;100521.27;5142028;57;1161386;-72
2022/08/28 18:18:55;;;;;;;2.00;1.77;;;;;;;21.59;98.47;100526.84;5217524;56;1138983;-70
2022/08/28 18:24:02;;;;;;;3.15;1.98;;;;;;;21.54;98.48;100529.27;5169484;56;1139035;-68
2022/08/28 18:29:08;;;;;;;4.20;2.30;;;;;;;21.48;98.27;100534.08;5126047;57;1138906;-71
2022/08/28 18:34:14;;;;;;;6.42;2.83;;;;;;;21.48;98.43;100528.69;5116248;57;1139048;-72
2022/08/28 18:39:18;;;;;;;2.80;2.25;;;;;;;21.41;98.56;100539.88;5085105;57;1138913;-71
2022/08/28 18:44:25;;;;;;;3.58;2.30;;;;;;;21.45;98.46;100539.83;5094822;57;1138952;-72
2022/08/28 18:49:30;;;;;;;3.75;2.05;;;;;;;21.38;98.28;100543.80;5102997;57;1138951;-70
2022/08/28 18:54:37;;;;;;;3.50;3.00;;;;;;;21.31;98.19;100552.80;5091718;57;1138943;-68
2022/08/28 18:59:44;;;;;;;2.45;2.20;;;;;;;21.23;98.64;100556.45;5068562;57;1138982;-72
2022/08/28 19:04:50;;;;;;;2.27;2.15;;;;;;;21.15;98.93;100564.56;5073948;57;1138935;-68
2022/08/28 19:09:58;;;;;;;3.02;2.40;;;;;;;21.12;98.79;100574.34;5065476;57;1138992;-68
2022/08/28 19:15:07;;;;;;;2.96;2.66;;;;;;;21.15;98.69;100575.32;5051695;57;1139029;-69
2022/08/28 19:20:17;;;;;;;2.33;2.12;;;;;;;21.13;98.56;100589.47;5100098;57;1139377;-72
2022/08/28 19:25:26;;;;;;;2.67;2.58;;;;;;;21.20;98.55;100590.44;5193385;56;1139333;-70
2022/08/28 19:30:35;;;;;;;2.95;2.75;;;;;;;21.14;98.49;100590.30;5228317;56;1139128;-70
2022/08/28 19:35:41;;;;;;;3.27;2.83;;;;;;;21.10;98.56;100601.93;5194354;56;1139028;-72
2022/08/28 19:40:47;;;;;;;4.40;4.00;;;;;;;21.08;98.87;100607.20;5221493;56;1138990;-69
2022/08/28 19:45:53;;;;;;;4.12;3.72;;;;;;;21.12;98.70;100603.09;5228036;56;1139053;-72
2022/08/28 19:51:08;;;;;;;5.25;3.08;;;;;;;21.14;98.97;100617.20;5192437;56;1139118;-68
2022/08/28 19:56:15;;;;;;;2.77;2.58;;;;;;;21.06;99.06;100621.66;5190765;56;1138987;-69
2022/08/28 20:01:22;;;;;;;3.52;2.67;;;;;;;20.99;99.10;100607.77;5161414;56;1138977;-68
2022/08/28 20:06:31;;;;;;;3.80;3.22;;;;;;;20.99;99.36;100609.13;5217104;56;1139169;-74
2022/08/28 20:11:36;;;;;;;3.02;2.80;;;;;;;20.95;99.53;100605.95;5176012;56;1139101;-71
2022/08/28 20:16:44;;;;;;;3.52;2.77;;;;;;;20.95;99.62;100617.22;5213955;56;1138936;-70
2022/08/28 20:21:51;;;;;;;4.28;2.60;;;;;;;20.93;100.00;100615.25;5228116;56;1138949;-68
2022/08/28 20:26:57;;;;;;;3.27;3.00;;;;;;;20.88;100.00;100623.02;5083706;57;1141524;-73
2022/08/28 20:32:03;;;;;;;7.40;2.83;;;;;;;20.87;100.00;100625.38;5099048;57;1141306;-68
2022/08/28 20:37:10;;;;;;;11.90;2.87;;;;;;;20.87;100.00;100625.38;5091956;57;1141174;-73
2022/08/28 20:42:16;;;;;;;3.08;2.85;;;;;;;20.93;99.78;100642.95;5032347;57;1143132;-73
2022/08/28 20:47:21;;;;;;;2.90;2.37;;;;;;;20.91;99.69;100638.28;5076239;57;1139000;-71
2022/08/28 20:52:29;;;;;;;4.58;3.40;;;;;;;20.90;99.87;100643.84;5077654;56;1138977;-68
2022/08/28 20:57:35;;;;;;;5.33;3.20;;;;;;;20.81;99.84;100644.41;5170476;56;1139006;-73
2022/08/28 21:02:41;;;;;;;4.30;3.50;;;;;;;20.70;100.00;100648.89;5181317;56;1139000;-71
2022/08/28 21:07:47;;;;;;;3.40;2.98;;;;;;;20.71;100.00;100653.25;5187110;56;1139007;-70
2022/08/28 21:12:53;;;;;;;4.20;3.15;;;;;;;20.65;100.00;100645.91;5127848;57;1139066;-71
2022/08/28 21:18:00;;;;;;;3.58;3.30;;;;;;;20.66;100.00;100646.23;5187124;56;1138983;-67
2022/08/28 21:23:06;;;;;;;4.90;2.87;;;;;;;20.62;100.00;100648.97;5213851;56;1138992;-68
2022/08/28 21:28:12;;;;;;;6.22;3.25;;;;;;;20.59;99.68;100649.33;5222543;56;1139126;-68
2022/08/28 21:33:18;;;;;;;4.87;3.33;;;;;;;20.58;99.53;100652.52;5224106;56;1136906;-70
2022/08/28 21:38:24;;;;;;;5.40;3.55;;;;;;;20.60;99.27;100653.18;5157124;56;1137095;-71
2022/08/28 21:43:29;;;;;;;4.70;3.37;;;;;;;20.55;99.14;100654.22;5191327;56;1136956;-68
2022/08/28 21:48:35;;;;;;;3.35;2.80;;;;;;;20.48;98.94;100661.82;5138031;57;1137178;-72
2022/08/28 21:53:43;;;;;;;4.12;3.12;;;;;;;20.51;98.96;100658.28;5145148;56;1136887;-74
2022/08/28 21:58:51;;;;;;;4.37;3.62;;;;;;;20.53;98.68;100664.31;5223873;56;1136867;-70
2022/08/28 22:03:57;;;;;;;9.68;3.27;;;;;;;20.47;98.40;100668.24;5149075;56;1136945;-71
2022/08/28 22:09:04;;;;;;;7.53;3.67;;;;;;;20.31;98.41;100674.53;5138177;56;1137058;-73
2022/08/28 22:14:10;;;;;;;8.30;3.62;;;;;;;20.28;98.77;100674.88;5166797;56;1136823;-67
2022/08/28 22:19:16;;;;;;;6.42;4.08;;;;;;;20.21;98.72;100681.45;5162163;56;1136903;-72
2022/08/28 22:24:22;;;;;;;5.30;4.10;;;;;;;20.11;98.83;100684.05;5143571;56;1136938;-69
2022/08/28 22:29:35;;;;;;;6.80;3.47;;;;;;;20.11;98.78;100690.77;5168715;56;1136967;-67
2022/08/28 22:34:42;;;;;;;3.77;3.20;;;;;;;20.11;98.72;100693.45;5165832;56;1134885;-72
2022/08/28 22:39:48;;;;;;;6.22;3.83;;;;;;;20.12;98.51;100702.67;5169013;56;1139324;-69
2022/08/28 22:44:54;;;;;;;10.43;3.70;;;;;;;20.10;98.31;100710.06;5192631;56;1138878;-66
2022/08/28 22:50:00;;;;;;;16.00;3.95;;;;;;;19.98;98.23;100712.31;5138881;56;1141056;-71
2022/08/28 22:55:09;;;;;;;7.20;3.37;;;;;;;19.93;98.18;100708.47;5128053;57;1141048;-68
2022/08/28 23:00:20;;;;;;;4.60;3.55;;;;;;;19.88;98.33;100711.67;5139298;56;1138887;-67
2022/08/28 23:05:28;;;;;;;4.83;3.08;;;;;;;19.88;98.27;100710.33;5213452;56;1138959;-69
2022/08/28 23:10:33;;;;;;;5.75;3.60;;;;;;;19.90;97.80;100708.81;5140067;56;1139093;-73
2022/08/28 23:15:40;;;;;;;7.47;3.72;;;;;;;19.86;97.66;100711.00;5146702;56;1139267;-64
2022/08/28 23:20:45;;;;;;;8.18;4.22;;;;;;;19.81;97.39;100717.42;5213342;56;1139205;-68
2022/08/28 23:25:51;;;;;;;9.68;3.62;;;;;;;19.77;97.28;100716.09;5213462;56;1139476;-70
2022/08/28 23:30:57;;;;;;;7.70;3.30;;;;;;;19.67;97.19;100716.80;5213481;56;1139209;-72